sensor_id;sensor_type;location;lat;lon;timestamp;pressure;altitude;pressure_sealevel;temperature;humidity
74798;BME280;63326;45.088;7.658;2023-03-02T00:01:36;98984.75;;;4.29;83.29
74798;BME280;63326;45.088;7.658;2023-03-02T00:04:07;98967.22;;;4.17;83.47
74798;BME280;63326;45.088;7.658;2023-03-02T00:06:35;99016.50;;;4.41;83.14
74798;BME280;63326;45.088;7.658;2023-03-02T00:09:03;99009.50;;;4.40;82.76
74798;BME280;63326;45.088;7.658;2023-03-02T00:11:33;99011.19;;;4.41;83.02
74798;BME280;63326;45.088;7.658;2023-03-02T00:14:01;98958.38;;;4.07;83.53
74798;BME280;63326;45.088;7.658;2023-03-02T00:16:27;98962.59;;;4.10;83.67
74798;BME280;63326;45.088;7.658;2023-03-02T00:18:54;99006.97;;;4.38;84.69
74798;BME280;63326;45.088;7.658;2023-03-02T00:21:21;98945.66;;;4.01;84.42
74798;BME280;63326;45.088;7.658;2023-03-02T00:23:50;98969.97;;;4.06;83.52
74798;BME280;63326;45.088;7.658;2023-03-02T00:26:18;99006.22;;;4.26;82.48
74798;BME280;63326;45.088;7.658;2023-03-02T00:28:45;98955.13;;;3.94;83.75
74798;BME280;63326;45.088;7.658;2023-03-02T00:31:12;98991.81;;;4.19;82.90
74798;BME280;63326;45.088;7.658;2023-03-02T00:33:38;98964.78;;;4.04;82.66
74798;BME280;63326;45.088;7.658;2023-03-02T00:36:05;98958.88;;;3.91;82.14
74798;BME280;63326;45.088;7.658;2023-03-02T00:38:32;98966.97;;;3.90;82.31
74798;BME280;63326;45.088;7.658;2023-03-02T00:40:59;98972.56;;;3.96;82.98
74798;BME280;63326;45.088;7.658;2023-03-02T00:43:25;98938.41;;;3.72;83.48
74798;BME280;63326;45.088;7.658;2023-03-02T00:45:54;98997.13;;;4.19;83.17
74798;BME280;63326;45.088;7.658;2023-03-02T00:48:21;98959.44;;;3.95;83.06
74798;BME280;63326;45.088;7.658;2023-03-02T00:50:48;98945.84;;;3.79;83.60
74798;BME280;63326;45.088;7.658;2023-03-02T00:53:14;98974.00;;;4.00;84.60
74798;BME280;63326;45.088;7.658;2023-03-02T00:55:41;98930.97;;;3.66;84.08
74798;BME280;63326;45.088;7.658;2023-03-02T00:58:08;98976.75;;;3.89;83.94
74798;BME280;63326;45.088;7.658;2023-03-02T01:00:36;98991.28;;;3.95;83.68
74798;BME280;63326;45.088;7.658;2023-03-02T01:03:05;99008.22;;;4.03;83.31
74798;BME280;63326;45.088;7.658;2023-03-02T01:05:35;98983.13;;;3.87;83.36
74798;BME280;63326;45.088;7.658;2023-03-02T01:08:02;99003.69;;;3.94;83.21
74798;BME280;63326;45.088;7.658;2023-03-02T01:10:33;98928.66;;;3.52;84.46
74798;BME280;63326;45.088;7.658;2023-03-02T01:13:00;98932.47;;;3.59;84.53
74798;BME280;63326;45.088;7.658;2023-03-02T01:15:27;98973.69;;;3.94;84.59
74798;BME280;63326;45.088;7.658;2023-03-02T01:17:54;98966.00;;;3.91;85.42
74798;BME280;63326;45.088;7.658;2023-03-02T01:20:20;98945.72;;;3.80;85.59
74798;BME280;63326;45.088;7.658;2023-03-02T01:22:47;98967.22;;;3.87;86.21
74798;BME280;63326;45.088;7.658;2023-03-02T01:25:14;98968.09;;;3.66;85.78
74798;BME280;63326;45.088;7.658;2023-03-02T01:27:40;98982.97;;;3.79;85.63
74798;BME280;63326;45.088;7.658;2023-03-02T01:30:08;98956.91;;;3.63;85.67
74798;BME280;63326;45.088;7.658;2023-03-02T01:32:35;98954.44;;;3.71;85.80
74798;BME280;63326;45.088;7.658;2023-03-02T01:35:01;98979.06;;;3.83;85.91
74798;BME280;63326;45.088;7.658;2023-03-02T01:37:28;98960.91;;;3.78;86.84
74798;BME280;63326;45.088;7.658;2023-03-02T01:39:55;98937.38;;;3.64;86.79
74798;BME280;63326;45.088;7.658;2023-03-02T01:42:21;98929.28;;;3.65;86.49
74798;BME280;63326;45.088;7.658;2023-03-02T01:44:51;98961.06;;;3.86;86.76
74798;BME280;63326;45.088;7.658;2023-03-02T01:47:35;98938.84;;;3.78;86.42
74798;BME280;63326;45.088;7.658;2023-03-02T01:50:20;98952.00;;;3.79;86.11
74798;BME280;63326;45.088;7.658;2023-03-02T01:52:53;98948.13;;;3.62;85.92
74798;BME280;63326;45.088;7.658;2023-03-02T01:55:24;98955.03;;;3.54;86.69
74798;BME280;63326;45.088;7.658;2023-03-02T01:57:55;98939.47;;;3.39;86.14
74798;BME280;63326;45.088;7.658;2023-03-02T02:00:27;98954.06;;;3.55;85.64
74798;BME280;63326;45.088;7.658;2023-03-02T02:02:58;98954.78;;;3.57;86.44
74798;BME280;63326;45.088;7.658;2023-03-02T02:05:39;98942.69;;;3.43;86.40
74798;BME280;63326;45.088;7.658;2023-03-02T02:08:07;98960.41;;;3.63;87.04
74798;BME280;63326;45.088;7.658;2023-03-02T02:10:34;98930.16;;;3.45;86.10
74798;BME280;63326;45.088;7.658;2023-03-02T02:13:01;98900.66;;;3.29;85.68
74798;BME280;63326;45.088;7.658;2023-03-02T02:15:28;98952.78;;;3.49;84.96
74798;BME280;63326;45.088;7.658;2023-03-02T02:17:55;98945.41;;;3.53;86.26
74798;BME280;63326;45.088;7.658;2023-03-02T02:20:42;98952.84;;;3.59;85.24
74798;BME280;63326;45.088;7.658;2023-03-02T02:23:54;98954.41;;;3.61;85.84
74798;BME280;63326;45.088;7.658;2023-03-02T02:26:21;98954.59;;;3.69;85.95
74798;BME280;63326;45.088;7.658;2023-03-02T02:29:02;98962.00;;;3.75;86.36
74798;BME280;63326;45.088;7.658;2023-03-02T02:31:37;98953.47;;;3.72;84.58
74798;BME280;63326;45.088;7.658;2023-03-02T02:34:11;98943.47;;;3.55;85.09
74798;BME280;63326;45.088;7.658;2023-03-02T02:36:44;98951.75;;;3.61;84.65
74798;BME280;63326;45.088;7.658;2023-03-02T02:39:22;98927.63;;;3.43;84.69
74798;BME280;63326;45.088;7.658;2023-03-02T02:41:54;98920.78;;;3.41;85.08
74798;BME280;63326;45.088;7.658;2023-03-02T02:44:21;98943.16;;;3.48;84.48
74798;BME280;63326;45.088;7.658;2023-03-02T02:46:48;98922.00;;;3.37;85.05
74798;BME280;63326;45.088;7.658;2023-03-02T02:49:33;98935.31;;;3.46;85.06
74798;BME280;63326;45.088;7.658;2023-03-02T02:52:02;98920.31;;;3.36;84.74
74798;BME280;63326;45.088;7.658;2023-03-02T02:54:30;98932.09;;;3.43;84.62
74798;BME280;63326;45.088;7.658;2023-03-02T02:56:59;98920.22;;;3.37;85.24
74798;BME280;63326;45.088;7.658;2023-03-02T02:59:30;98911.09;;;3.30;85.09
74798;BME280;63326;45.088;7.658;2023-03-02T03:01:59;98909.56;;;3.28;85.11
74798;BME280;63326;45.088;7.658;2023-03-02T03:04:29;98873.69;;;3.03;85.54
74798;BME280;63326;45.088;7.658;2023-03-02T03:07:03;98923.59;;;3.39;85.46
74798;BME280;63326;45.088;7.658;2023-03-02T03:09:31;98907.00;;;3.26;85.44
74798;BME280;63326;45.088;7.658;2023-03-02T03:12:16;98932.09;;;3.43;85.46
74798;BME280;63326;45.088;7.658;2023-03-02T03:14:45;98915.16;;;3.34;85.39
74798;BME280;63326;45.088;7.658;2023-03-02T03:17:12;98937.41;;;3.43;85.17
74798;BME280;63326;45.088;7.658;2023-03-02T03:19:49;98909.28;;;3.31;84.76
74798;BME280;63326;45.088;7.658;2023-03-02T03:22:17;98898.16;;;3.16;85.07
74798;BME280;63326;45.088;7.658;2023-03-02T03:24:47;98923.81;;;3.36;85.30
74798;BME280;63326;45.088;7.658;2023-03-02T03:27:15;98898.50;;;3.23;85.32
74798;BME280;63326;45.088;7.658;2023-03-02T03:29:45;98924.56;;;3.38;85.54
74798;BME280;63326;45.088;7.658;2023-03-02T03:32:17;98897.09;;;3.18;85.35
74798;BME280;63326;45.088;7.658;2023-03-02T03:34:44;98899.47;;;3.22;85.28
74798;BME280;63326;45.088;7.658;2023-03-02T03:37:22;98922.13;;;3.35;86.09
74798;BME280;63326;45.088;7.658;2023-03-02T03:39:49;98905.22;;;3.27;86.30
74798;BME280;63326;45.088;7.658;2023-03-02T03:42:17;98877.94;;;3.15;86.13
74798;BME280;63326;45.088;7.658;2023-03-02T03:44:44;98864.00;;;3.13;86.52
74798;BME280;63326;45.088;7.658;2023-03-02T03:47:11;98923.09;;;3.55;86.01
74798;BME280;63326;45.088;7.658;2023-03-02T03:49:39;98866.34;;;3.37;85.86
74798;BME280;63326;45.088;7.658;2023-03-02T03:52:06;98897.75;;;3.62;86.30
74798;BME280;63326;45.088;7.658;2023-03-02T03:54:33;98867.38;;;3.45;85.90
74798;BME280;63326;45.088;7.658;2023-03-02T03:57:00;98898.31;;;3.66;85.71
74798;BME280;63326;45.088;7.658;2023-03-02T03:59:26;98890.50;;;3.64;85.43
74798;BME280;63326;45.088;7.658;2023-03-02T04:01:58;98895.41;;;3.69;84.96
74798;BME280;63326;45.088;7.658;2023-03-02T04:04:32;98876.69;;;3.61;84.56
74798;BME280;63326;45.088;7.658;2023-03-02T04:07:03;98895.00;;;3.73;84.22
74798;BME280;63326;45.088;7.658;2023-03-02T04:09:30;98897.13;;;3.80;84.84
74798;BME280;63326;45.088;7.658;2023-03-02T04:11:59;98853.47;;;3.53;84.09
74798;BME280;63326;45.088;7.658;2023-03-02T04:14:26;98905.38;;;3.86;84.03
74798;BME280;63326;45.088;7.658;2023-03-02T04:16:54;98897.28;;;3.88;85.16
74798;BME280;63326;45.088;7.658;2023-03-02T04:19:22;98886.06;;;3.74;83.92
74798;BME280;63326;45.088;7.658;2023-03-02T04:21:53;98891.84;;;3.80;83.82
74798;BME280;63326;45.088;7.658;2023-03-02T04:24:22;98919.28;;;3.99;83.46
74798;BME280;63326;45.088;7.658;2023-03-02T04:26:53;98896.44;;;3.87;84.42
74798;BME280;63326;45.088;7.658;2023-03-02T04:29:20;98889.19;;;3.80;83.43
74798;BME280;63326;45.088;7.658;2023-03-02T04:31:46;98922.63;;;4.01;83.68
74798;BME280;63326;45.088;7.658;2023-03-02T04:34:15;98922.75;;;4.00;83.06
74798;BME280;63326;45.088;7.658;2023-03-02T04:36:43;98887.22;;;3.82;83.62
74798;BME280;63326;45.088;7.658;2023-03-02T04:39:13;98923.75;;;4.09;84.14
74798;BME280;63326;45.088;7.658;2023-03-02T04:41:45;98924.84;;;4.06;83.57
74798;BME280;63326;45.088;7.658;2023-03-02T04:44:12;98916.72;;;3.98;82.83
74798;BME280;63326;45.088;7.658;2023-03-02T04:46:40;98923.75;;;3.99;82.37
74798;BME280;63326;45.088;7.658;2023-03-02T04:49:10;98894.72;;;3.76;83.20
74798;BME280;63326;45.088;7.658;2023-03-02T04:51:40;98913.19;;;3.88;83.19
74798;BME280;63326;45.088;7.658;2023-03-02T04:54:13;98929.03;;;3.99;83.22
74798;BME280;63326;45.088;7.658;2023-03-02T04:56:40;98881.31;;;3.68;82.62
74798;BME280;63326;45.088;7.658;2023-03-02T04:59:07;98923.28;;;3.94;83.14
74798;BME280;63326;45.088;7.658;2023-03-02T05:01:33;98922.97;;;3.87;82.94
74798;BME280;63326;45.088;7.658;2023-03-02T05:04:00;98872.72;;;3.55;83.62
74798;BME280;63326;45.088;7.658;2023-03-02T05:06:28;98931.94;;;3.96;82.99
74798;BME280;63326;45.088;7.658;2023-03-02T05:08:55;98896.94;;;3.71;83.21
74798;BME280;63326;45.088;7.658;2023-03-02T05:11:25;98913.75;;;3.82;83.64
74798;BME280;63326;45.088;7.658;2023-03-02T05:13:55;98941.19;;;4.01;83.98
74798;BME280;63326;45.088;7.658;2023-03-02T05:16:23;98910.13;;;3.83;84.00
74798;BME280;63326;45.088;7.658;2023-03-02T05:18:50;98923.16;;;3.95;83.82
74798;BME280;63326;45.088;7.658;2023-03-02T05:21:18;98948.03;;;4.04;83.42
74798;BME280;63326;45.088;7.658;2023-03-02T05:23:45;98942.03;;;4.02;83.27
74798;BME280;63326;45.088;7.658;2023-03-02T05:26:12;98929.75;;;4.01;84.44
74798;BME280;63326;45.088;7.658;2023-03-02T05:28:39;98908.16;;;3.85;83.81
74798;BME280;63326;45.088;7.658;2023-03-02T05:31:06;98923.28;;;3.94;84.25
74798;BME280;63326;45.088;7.658;2023-03-02T05:33:33;98909.72;;;3.87;83.63
74798;BME280;63326;45.088;7.658;2023-03-02T05:36:00;98921.88;;;3.90;84.32
74798;BME280;63326;45.088;7.658;2023-03-02T05:38:26;98925.91;;;3.84;84.76
74798;BME280;63326;45.088;7.658;2023-03-02T05:40:55;98915.94;;;3.76;84.51
74798;BME280;63326;45.088;7.658;2023-03-02T05:43:22;98937.47;;;3.83;84.17
74798;BME280;63326;45.088;7.658;2023-03-02T05:45:48;98934.25;;;3.80;84.75
74798;BME280;63326;45.088;7.658;2023-03-02T05:48:15;98933.28;;;3.81;85.49
74798;BME280;63326;45.088;7.658;2023-03-02T05:50:42;98909.88;;;3.65;84.71
74798;BME280;63326;45.088;7.658;2023-03-02T05:53:09;98944.59;;;3.83;84.88
74798;BME280;63326;45.088;7.658;2023-03-02T05:55:35;98959.44;;;3.95;85.30
74798;BME280;63326;45.088;7.658;2023-03-02T05:58:05;98968.69;;;4.00;85.06
74798;BME280;63326;45.088;7.658;2023-03-02T06:00:32;98893.94;;;3.55;85.14
74798;BME280;63326;45.088;7.658;2023-03-02T06:02:59;98978.63;;;4.08;84.50
74798;BME280;63326;45.088;7.658;2023-03-02T06:05:26;98971.91;;;4.04;84.99
74798;BME280;63326;45.088;7.658;2023-03-02T06:07:52;98963.06;;;3.94;83.57
74798;BME280;63326;45.088;7.658;2023-03-02T06:10:19;98945.00;;;3.78;83.31
74798;BME280;63326;45.088;7.658;2023-03-02T06:12:46;98979.50;;;3.88;82.77
74798;BME280;63326;45.088;7.658;2023-03-02T06:15:13;98993.94;;;3.95;83.92
74798;BME280;63326;45.088;7.658;2023-03-02T06:17:39;98998.84;;;3.99;83.62
74798;BME280;63326;45.088;7.658;2023-03-02T06:20:07;99002.78;;;4.05;83.93
74798;BME280;63326;45.088;7.658;2023-03-02T06:22:39;98993.00;;;4.05;83.86
74798;BME280;63326;45.088;7.658;2023-03-02T06:25:16;98986.47;;;4.10;83.24
74798;BME280;63326;45.088;7.658;2023-03-02T06:27:44;99010.56;;;4.27;83.19
74798;BME280;63326;45.088;7.658;2023-03-02T06:30:13;98979.47;;;4.09;81.09
74798;BME280;63326;45.088;7.658;2023-03-02T06:32:41;99015.91;;;4.37;81.86
74798;BME280;63326;45.088;7.658;2023-03-02T06:35:08;99015.25;;;4.45;81.91
74798;BME280;63326;45.088;7.658;2023-03-02T06:37:35;99010.66;;;4.56;81.40
74798;BME280;63326;45.088;7.658;2023-03-02T06:40:03;99018.50;;;4.68;81.49
74798;BME280;63326;45.088;7.658;2023-03-02T06:42:37;99006.38;;;4.75;80.97
74798;BME280;63326;45.088;7.658;2023-03-02T06:45:05;98994.22;;;4.72;81.36
74798;BME280;63326;45.088;7.658;2023-03-02T06:47:32;99008.22;;;4.84;80.96
74798;BME280;63326;45.088;7.658;2023-03-02T06:49:59;99016.72;;;4.87;81.64
74798;BME280;63326;45.088;7.658;2023-03-02T06:52:26;99015.50;;;4.91;80.35
74798;BME280;63326;45.088;7.658;2023-03-02T06:54:54;99015.91;;;4.87;80.98
74798;BME280;63326;45.088;7.658;2023-03-02T06:57:21;98989.47;;;4.76;80.20
74798;BME280;63326;45.088;7.658;2023-03-02T06:59:48;98989.47;;;4.76;80.51
74798;BME280;63326;45.088;7.658;2023-03-02T07:02:15;99020.22;;;4.88;80.91
74798;BME280;63326;45.088;7.658;2023-03-02T07:04:41;99009.59;;;4.78;81.22
74798;BME280;63326;45.088;7.658;2023-03-02T07:07:08;98986.50;;;4.69;81.16
74798;BME280;63326;45.088;7.658;2023-03-02T07:09:35;99012.00;;;4.91;81.05
74798;BME280;63326;45.088;7.658;2023-03-02T07:12:02;98986.38;;;4.71;82.37
74798;BME280;63326;45.088;7.658;2023-03-02T07:14:28;99011.72;;;4.94;81.73
74798;BME280;63326;45.088;7.658;2023-03-02T07:16:55;99015.78;;;5.08;81.19
74798;BME280;63326;45.088;7.658;2023-03-02T07:19:23;99022.78;;;5.18;81.05
74798;BME280;63326;45.088;7.658;2023-03-02T07:21:49;99014.41;;;5.23;81.71
74798;BME280;63326;45.088;7.658;2023-03-02T07:24:16;98997.03;;;5.19;81.20
74798;BME280;63326;45.088;7.658;2023-03-02T07:26:43;99017.91;;;5.33;80.73
74798;BME280;63326;45.088;7.658;2023-03-02T07:29:09;99009.94;;;5.24;80.90
74798;BME280;63326;45.088;7.658;2023-03-02T07:31:36;99019.16;;;5.29;80.34
74798;BME280;63326;45.088;7.658;2023-03-02T07:34:02;99023.22;;;5.33;80.04
74798;BME280;63326;45.088;7.658;2023-03-02T07:36:29;99023.78;;;5.27;80.50
74798;BME280;63326;45.088;7.658;2023-03-02T07:38:56;99026.72;;;5.43;81.43
74798;BME280;63326;45.088;7.658;2023-03-02T07:41:23;99020.56;;;5.53;80.47
74798;BME280;63326;45.088;7.658;2023-03-02T07:43:49;99021.09;;;5.66;80.14
74798;BME280;63326;45.088;7.658;2023-03-02T07:46:16;98999.38;;;5.61;79.82
74798;BME280;63326;45.088;7.658;2023-03-02T07:48:43;99031.41;;;5.88;78.97
74798;BME280;63326;45.088;7.658;2023-03-02T07:51:09;99023.59;;;5.96;79.04
74798;BME280;63326;45.088;7.658;2023-03-02T07:53:37;99028.31;;;6.02;77.91
74798;BME280;63326;45.088;7.658;2023-03-02T07:56:08;99035.63;;;5.81;78.44
74798;BME280;63326;45.088;7.658;2023-03-02T07:58:36;99009.94;;;5.43;79.52
74798;BME280;63326;45.088;7.658;2023-03-02T08:01:03;99015.78;;;5.56;79.98
74798;BME280;63326;45.088;7.658;2023-03-02T08:03:30;99011.72;;;5.62;80.03
74798;BME280;63326;45.088;7.658;2023-03-02T08:05:57;99016.50;;;5.39;80.13
74798;BME280;63326;45.088;7.658;2023-03-02T08:08:23;99016.91;;;5.54;80.33
74798;BME280;63326;45.088;7.658;2023-03-02T08:10:50;99014.66;;;5.39;81.24
74798;BME280;63326;45.088;7.658;2023-03-02T08:13:16;99009.66;;;5.27;81.25
74798;BME280;63326;45.088;7.658;2023-03-02T08:15:43;99010.19;;;5.40;80.73
74798;BME280;63326;45.088;7.658;2023-03-02T08:18:10;99012.00;;;5.59;80.89
74798;BME280;63326;45.088;7.658;2023-03-02T08:20:37;99010.19;;;5.40;80.84
74798;BME280;63326;45.088;7.658;2023-03-02T08:23:03;98962.38;;;5.01;81.79
74798;BME280;63326;45.088;7.658;2023-03-02T08:25:30;98979.69;;;5.44;80.69
74798;BME280;63326;45.088;7.658;2023-03-02T08:27:59;98995.06;;;5.60;80.11
74798;BME280;63326;45.088;7.658;2023-03-02T08:30:25;98997.66;;;5.98;79.59
74798;BME280;63326;45.088;7.658;2023-03-02T08:32:52;99009.00;;;6.00;77.72
74798;BME280;63326;45.088;7.658;2023-03-02T08:35:19;98975.41;;;5.80;77.83
74798;BME280;63326;45.088;7.658;2023-03-02T08:37:47;98979.75;;;5.81;77.86
74798;BME280;63326;45.088;7.658;2023-03-02T08:40:14;99004.38;;;6.02;77.33
74798;BME280;63326;45.088;7.658;2023-03-02T08:42:41;98996.06;;;6.25;77.42
74798;BME280;63326;45.088;7.658;2023-03-02T08:45:08;98973.41;;;6.39;77.32
74798;BME280;63326;45.088;7.658;2023-03-02T08:47:34;98988.78;;;6.54;75.10
74798;BME280;63326;45.088;7.658;2023-03-02T08:50:01;98994.25;;;6.43;75.38
74798;BME280;63326;45.088;7.658;2023-03-02T08:52:28;98985.91;;;6.38;75.12
74798;BME280;63326;45.088;7.658;2023-03-02T08:54:54;98958.72;;;6.34;74.84
74798;BME280;63326;45.088;7.658;2023-03-02T08:57:21;98997.91;;;6.70;74.51
74798;BME280;63326;45.088;7.658;2023-03-02T08:59:48;98940.16;;;6.43;74.57
74798;BME280;63326;45.088;7.658;2023-03-02T09:02:14;98981.81;;;6.89;74.29
74798;BME280;63326;45.088;7.658;2023-03-02T09:04:41;98992.72;;;7.31;74.06
74798;BME280;63326;45.088;7.658;2023-03-02T09:07:08;98977.53;;;7.49;72.49
74798;BME280;63326;45.088;7.658;2023-03-02T09:09:35;98945.78;;;7.38;71.77
74798;BME280;63326;45.088;7.658;2023-03-02T09:12:02;98958.94;;;7.58;69.33
74798;BME280;63326;45.088;7.658;2023-03-02T09:14:28;98955.75;;;7.80;69.33
74798;BME280;63326;45.088;7.658;2023-03-02T09:16:55;98974.06;;;8.01;69.27
74798;BME280;63326;45.088;7.658;2023-03-02T09:19:22;98968.16;;;8.23;67.92
74798;BME280;63326;45.088;7.658;2023-03-02T09:21:48;98957.34;;;8.33;67.35
74798;BME280;63326;45.088;7.658;2023-03-02T09:24:15;98977.34;;;8.55;65.12
74798;BME280;63326;45.088;7.658;2023-03-02T09:26:42;98982.28;;;8.84;62.85
74798;BME280;63326;45.088;7.658;2023-03-02T09:29:08;98927.47;;;8.72;64.12
74798;BME280;63326;45.088;7.658;2023-03-02T09:31:35;98976.00;;;9.58;61.21
74798;BME280;63326;45.088;7.658;2023-03-02T09:34:03;98957.47;;;10.20;60.99
74798;BME280;63326;45.088;7.658;2023-03-02T09:36:30;98932.56;;;10.90;57.34
74798;BME280;63326;45.088;7.658;2023-03-02T09:38:58;98937.53;;;11.62;53.97
74798;BME280;63326;45.088;7.658;2023-03-02T09:41:37;98943.63;;;11.93;52.81
74798;BME280;63326;45.088;7.658;2023-03-02T09:44:37;98960.81;;;12.36;50.92
74798;BME280;63326;45.088;7.658;2023-03-02T09:47:30;98954.06;;;12.91;51.40
74798;BME280;63326;45.088;7.658;2023-03-02T09:52:48;98959.31;;;13.00;50.25
74798;BME280;63326;45.088;7.658;2023-03-02T09:55:26;98958.75;;;13.19;50.05
74798;BME280;63326;45.088;7.658;2023-03-02T09:57:54;98962.91;;;13.21;50.23
74798;BME280;63326;45.088;7.658;2023-03-02T10:00:29;98960.34;;;12.48;50.96
74798;BME280;63326;45.088;7.658;2023-03-02T10:02:59;98962.91;;;12.71;52.26
74798;BME280;63326;45.088;7.658;2023-03-02T10:05:44;98968.94;;;12.14;51.02
74798;BME280;63326;45.088;7.658;2023-03-02T10:08:18;98969.91;;;12.06;50.96
74798;BME280;63326;45.088;7.658;2023-03-02T10:11:07;98966.59;;;11.81;52.45
74798;BME280;63326;45.088;7.658;2023-03-02T10:14:05;98961.81;;;11.68;53.59
74798;BME280;63326;45.088;7.658;2023-03-02T10:17:11;98959.25;;;11.37;54.90
74798;BME280;63326;45.088;7.658;2023-03-02T10:19:46;98962.41;;;10.56;56.89
74798;BME280;63326;45.088;7.658;2023-03-02T10:22:31;98961.69;;;10.62;57.46
74798;BME280;63326;45.088;7.658;2023-03-02T10:28:28;98928.16;;;10.97;55.42
74798;BME280;63326;45.088;7.658;2023-03-02T10:31:11;98960.03;;;10.61;57.19
74798;BME280;63326;45.088;7.658;2023-03-02T10:33:40;98947.06;;;10.73;56.60
74798;BME280;63326;45.088;7.658;2023-03-02T10:36:18;98938.03;;;11.42;55.74
74798;BME280;63326;45.088;7.658;2023-03-02T10:38:47;98934.94;;;10.85;55.77
74798;BME280;63326;45.088;7.658;2023-03-02T10:41:26;98935.34;;;10.74;56.15
74798;BME280;63326;45.088;7.658;2023-03-02T10:44:00;98940.78;;;11.11;54.79
74798;BME280;63326;45.088;7.658;2023-03-02T10:46:41;98897.03;;;10.88;55.81
74798;BME280;63326;45.088;7.658;2023-03-02T10:51:59;98934.09;;;11.53;54.24
74798;BME280;63326;45.088;7.658;2023-03-02T10:54:29;98948.56;;;12.34;52.36
74798;BME280;63326;45.088;7.658;2023-03-02T10:56:59;98938.41;;;12.80;51.03
74798;BME280;63326;45.088;7.658;2023-03-02T10:59:43;98907.91;;;13.16;48.61
74798;BME280;63326;45.088;7.658;2023-03-02T11:02:22;98934.41;;;13.55;47.05
74798;BME280;63326;45.088;7.658;2023-03-02T11:07:27;98871.53;;;12.41;47.73
74798;BME280;63326;45.088;7.658;2023-03-02T11:10:14;98908.81;;;12.80;48.37
74798;BME280;63326;45.088;7.658;2023-03-02T11:12:46;98930.75;;;12.98;47.76
74798;BME280;63326;45.088;7.658;2023-03-02T11:18:03;98942.63;;;11.79;48.64
74798;BME280;63326;45.088;7.658;2023-03-02T11:20:34;98905.66;;;11.81;48.66
74798;BME280;63326;45.088;7.658;2023-03-02T11:23:29;98937.91;;;12.11;48.65
74798;BME280;63326;45.088;7.658;2023-03-02T11:26:25;98909.72;;;11.92;49.02
74798;BME280;63326;45.088;7.658;2023-03-02T11:31:44;98933.84;;;12.00;47.89
74798;BME280;63326;45.088;7.658;2023-03-02T11:39:31;98923.16;;;12.87;45.71
74798;BME280;63326;45.088;7.658;2023-03-02T11:42:10;98916.38;;;13.13;45.92
74798;BME280;63326;45.088;7.658;2023-03-02T11:44:41;98908.88;;;12.36;46.44
74798;BME280;63326;45.088;7.658;2023-03-02T11:47:08;98901.19;;;12.48;45.56
74798;BME280;63326;45.088;7.658;2023-03-02T11:49:41;98912.84;;;12.55;46.07
74798;BME280;63326;45.088;7.658;2023-03-02T11:52:21;98903.44;;;12.65;45.41
74798;BME280;63326;45.088;7.658;2023-03-02T11:54:53;98895.69;;;12.92;44.77
74798;BME280;63326;45.088;7.658;2023-03-02T11:57:36;98871.38;;;12.13;46.45
74798;BME280;63326;45.088;7.658;2023-03-02T12:00:14;98899.72;;;12.30;46.60
74798;BME280;63326;45.088;7.658;2023-03-02T12:02:44;98897.66;;;12.47;44.65
74798;BME280;63326;45.088;7.658;2023-03-02T12:05:26;98894.56;;;13.08;45.11
74798;BME280;63326;45.088;7.658;2023-03-02T12:13:57;98901.00;;;13.28;41.91
74798;BME280;63326;45.088;7.658;2023-03-02T12:22:02;98879.31;;;13.30;41.02
74798;BME280;63326;45.088;7.658;2023-03-02T12:24:33;98868.69;;;12.13;42.16
74798;BME280;63326;45.088;7.658;2023-03-02T12:30:08;98870.53;;;12.13;42.93
74798;BME280;63326;45.088;7.658;2023-03-02T12:32:36;98863.19;;;12.72;42.90
74798;BME280;63326;45.088;7.658;2023-03-02T12:37:53;98844.09;;;13.59;41.18
74798;BME280;63326;45.088;7.658;2023-03-02T12:40:39;98831.75;;;13.71;40.48
74798;BME280;63326;45.088;7.658;2023-03-02T12:43:26;98849.50;;;13.59;39.62
74798;BME280;63326;45.088;7.658;2023-03-02T12:51:32;98836.41;;;12.85;40.05
74798;BME280;63326;45.088;7.658;2023-03-02T12:54:14;98797.47;;;12.24;41.75
74798;BME280;63326;45.088;7.658;2023-03-02T12:56:42;98834.19;;;13.38;40.73
74798;BME280;63326;45.088;7.658;2023-03-02T12:59:19;98809.09;;;13.10;41.24
74798;BME280;63326;45.088;7.658;2023-03-02T13:01:46;98778.66;;;13.37;40.41
74798;BME280;63326;45.088;7.658;2023-03-02T13:04:24;98823.41;;;14.07;39.67
74798;BME280;63326;45.088;7.658;2023-03-02T13:06:52;98826.84;;;15.37;36.78
74798;BME280;63326;45.088;7.658;2023-03-02T13:09:20;98805.13;;;17.61;32.93
74798;BME280;63326;45.088;7.658;2023-03-02T13:11:48;98777.25;;;17.78;31.33
74798;BME280;63326;45.088;7.658;2023-03-02T13:14:24;98796.31;;;16.59;32.73
74798;BME280;63326;45.088;7.658;2023-03-02T13:16:54;98786.53;;;14.95;35.24
74798;BME280;63326;45.088;7.658;2023-03-02T13:19:22;98795.28;;;14.30;37.36
74798;BME280;63326;45.088;7.658;2023-03-02T13:21:49;98750.53;;;13.40;38.12
74798;BME280;63326;45.088;7.658;2023-03-02T13:24:48;98813.91;;;13.70;38.63
74798;BME280;63326;45.088;7.658;2023-03-02T13:27:18;98807.72;;;14.18;38.37
74798;BME280;63326;45.088;7.658;2023-03-02T13:29:46;98807.09;;;13.18;39.61
74798;BME280;63326;45.088;7.658;2023-03-02T13:32:19;98773.53;;;13.42;39.94
74798;BME280;63326;45.088;7.658;2023-03-02T13:34:49;98810.50;;;13.06;40.67
74798;BME280;63326;45.088;7.658;2023-03-02T13:37:19;98809.81;;;13.18;40.47
74798;BME280;63326;45.088;7.658;2023-03-02T13:39:58;98805.13;;;12.84;41.36
74798;BME280;63326;45.088;7.658;2023-03-02T13:42:32;98805.09;;;12.78;41.44
74798;BME280;63326;45.088;7.658;2023-03-02T13:45:24;98799.53;;;12.79;41.52
74798;BME280;63326;45.088;7.658;2023-03-02T13:47:52;98800.91;;;12.54;42.08
74798;BME280;63326;45.088;7.658;2023-03-02T13:50:21;98798.63;;;12.36;41.86
74798;BME280;63326;45.088;7.658;2023-03-02T13:52:49;98764.78;;;12.63;41.96
74798;BME280;63326;45.088;7.658;2023-03-02T13:55:18;98790.78;;;13.20;40.41
74798;BME280;63326;45.088;7.658;2023-03-02T13:57:47;98808.63;;;13.06;41.40
74798;BME280;63326;45.088;7.658;2023-03-02T14:00:33;98799.19;;;13.17;40.99
74798;BME280;63326;45.088;7.658;2023-03-02T14:03:00;98781.88;;;12.77;41.58
74798;BME280;63326;45.088;7.658;2023-03-02T14:05:27;98795.28;;;12.91;41.40
74798;BME280;63326;45.088;7.658;2023-03-02T14:07:59;98781.38;;;13.16;40.73
74798;BME280;63326;45.088;7.658;2023-03-02T14:10:26;98765.66;;;13.41;40.39